createdAt,value
2019-05-22T00:00:29.116Z,18.93
2019-05-22T00:03:05.323Z,21.97
2019-05-22T00:05:34.762Z,21.60
2019-05-22T00:08:09.211Z,21.60
2019-05-22T00:10:39.412Z,23.70
2019-05-22T00:13:13.208Z,23.70
2019-05-22T00:15:41.879Z,24.20
2019-05-22T00:18:12.063Z,23.13
2019-05-22T00:20:41.930Z,22.17
2019-05-22T00:23:14.814Z,23.67
2019-05-22T00:25:44.919Z,24.60
2019-05-22T00:28:14.654Z,25.20
2019-05-22T00:30:45.323Z,25.23
2019-05-22T00:33:14.838Z,24.43
2019-05-22T00:35:44.831Z,23.30
2019-05-22T00:38:15.092Z,24.60
2019-05-22T00:40:45.179Z,25.07
2019-05-22T00:43:17.104Z,25.30
2019-05-22T00:45:48.818Z,25.80
2019-05-22T00:48:20.113Z,24.50
2019-05-22T00:51:04.962Z,26.80
2019-05-22T00:53:51.718Z,24.30
2019-05-22T00:56:38.907Z,30.13
2019-05-22T00:59:26.519Z,29.13
2019-05-22T01:01:59.352Z,30.37
2019-05-22T01:04:43.403Z,32.40
2019-05-22T01:07:20.479Z,34.07
2019-05-22T01:09:51.464Z,31.77
2019-05-22T01:12:29.649Z,36.13
2019-05-22T01:15:01.193Z,34.73
2019-05-22T01:17:33.200Z,32.43
2019-05-22T01:20:03.093Z,34.00
2019-05-22T01:22:33.963Z,35.53
2019-05-22T01:25:04.587Z,36.53
2019-05-22T01:27:35.309Z,36.10
2019-05-22T01:30:07.330Z,36.87
2019-05-22T01:32:53.671Z,35.07
2019-05-22T01:35:23.842Z,36.73
2019-05-22T01:37:53.047Z,34.20
2019-05-22T01:40:44.348Z,33.20
2019-05-22T01:43:18.412Z,32.90
2019-05-22T01:45:55.232Z,36.20
2019-05-22T01:48:27.381Z,33.70
2019-05-22T01:50:57.761Z,32.27
2019-05-22T01:53:30.365Z,37.17
2019-05-22T01:55:59.486Z,35.97
2019-05-22T01:58:30.578Z,35.20
2019-05-22T02:01:00.648Z,33.63
2019-05-22T02:03:30.496Z,31.57
2019-05-22T02:05:58.692Z,30.20
2019-05-22T02:08:28.136Z,28.53
2019-05-22T02:10:57.996Z,26.90
2019-05-22T02:13:28.304Z,22.43
2019-05-22T02:15:56.839Z,24.47
2019-05-22T02:18:27.403Z,24.47
2019-05-22T02:20:56.693Z,21.37
2019-05-22T02:23:25.299Z,24.87
2019-05-22T02:25:53.896Z,22.93
2019-05-22T02:28:22.811Z,19.90
2019-05-22T02:30:51.846Z,20.03
2019-05-22T02:33:22.155Z,20.20
2019-05-22T02:35:51.335Z,21.00
2019-05-22T02:38:22.303Z,19.40
2019-05-22T02:40:54.400Z,21.00
2019-05-22T02:43:24.603Z,20.27
2019-05-22T02:45:53.894Z,20.90
2019-05-22T02:48:22.192Z,18.40
2019-05-22T02:50:52.261Z,18.90
2019-05-22T02:53:21.842Z,18.30
2019-05-22T02:55:50.888Z,17.17
2019-05-22T02:58:20.169Z,16.80
2019-05-22T03:00:51.785Z,18.47
2019-05-22T03:03:20.568Z,18.40
2019-05-22T03:05:50.148Z,19.17
2019-05-22T03:08:19.722Z,17.87
2019-05-22T03:10:50.169Z,18.63
2019-05-22T03:13:23.357Z,18.93
2019-05-22T03:15:54.833Z,20.20
2019-05-22T03:18:23.445Z,19.67
2019-05-22T03:20:52.561Z,19.13
2019-05-22T03:23:33.397Z,20.67
2019-05-22T03:26:02.338Z,21.93
2019-05-22T03:28:31.842Z,19.50
2019-05-22T03:31:00.279Z,20.83
2019-05-22T03:33:29.860Z,19.07
2019-05-22T03:36:14.971Z,19.47
2019-05-22T03:38:44.075Z,21.57
2019-05-22T03:41:13.396Z,21.57
2019-05-22T03:43:45.054Z,21.53
2019-05-22T03:46:31.755Z,23.30
2019-05-22T03:49:00.952Z,21.50
2019-05-22T03:51:36.207Z,21.50
2019-05-22T03:54:05.553Z,20.53
2019-05-22T03:56:37.120Z,20.43
2019-05-22T03:59:06.324Z,21.77
2019-05-22T04:01:36.118Z,20.33
2019-05-22T04:04:07.368Z,21.97
2019-05-22T04:06:37.015Z,22.10
2019-05-22T04:09:17.387Z,21.30
2019-05-22T04:11:46.625Z,19.90
2019-05-22T04:14:16.377Z,19.93
2019-05-22T04:16:44.745Z,20.60
2019-05-22T04:19:14.546Z,21.63
2019-05-22T04:21:44.888Z,20.33
2019-05-22T04:24:13.584Z,19.97
2019-05-22T04:26:42.383Z,19.13
2019-05-22T04:29:10.654Z,23.83
2019-05-22T04:31:52.347Z,25.17
2019-05-22T04:34:21.749Z,22.17
2019-05-22T04:36:50.836Z,20.87
2019-05-22T04:39:25.657Z,20.90
2019-05-22T04:41:57.209Z,23.33
2019-05-22T04:44:26.348Z,19.50
2019-05-22T04:46:55.604Z,22.33
2019-05-22T04:49:24.658Z,21.20
2019-05-22T04:51:53.189Z,20.40
2019-05-22T04:54:21.355Z,20.37
2019-05-22T04:56:51.587Z,20.27
2019-05-22T04:59:20.415Z,20.03
2019-05-22T05:01:50.028Z,22.47
2019-05-22T05:04:18.728Z,20.30
2019-05-22T05:06:47.031Z,19.97
2019-05-22T05:09:16.100Z,22.63
2019-05-22T05:11:45.116Z,22.20
2019-05-22T05:14:13.793Z,20.03
2019-05-22T05:16:41.985Z,19.17
2019-05-22T05:19:10.499Z,19.43
2019-05-22T05:21:38.958Z,19.30
2019-05-22T05:24:07.721Z,17.77
2019-05-22T05:26:38.056Z,18.73
2019-05-22T05:29:08.872Z,17.80
2019-05-22T05:31:37.038Z,17.87
2019-05-22T05:34:14.326Z,17.23
2019-05-22T05:36:44.699Z,17.33
2019-05-22T05:39:36.916Z,16.70
2019-05-22T05:42:05.506Z,16.13
2019-05-22T05:44:35.162Z,16.87
2019-05-22T05:47:03.915Z,15.60
2019-05-22T05:49:32.487Z,15.77
2019-05-22T05:52:01.144Z,15.57
2019-05-22T05:54:30.443Z,15.37
2019-05-22T05:57:14.862Z,14.33
2019-05-22T05:59:42.961Z,14.23
2019-05-22T06:02:12.732Z,14.63
2019-05-22T06:04:41.407Z,14.10
2019-05-22T06:07:19.256Z,14.60
2019-05-22T06:09:49.894Z,13.43
2019-05-22T06:12:18.751Z,13.33
2019-05-22T06:14:48.060Z,12.07
2019-05-22T06:17:25.439Z,13.33
2019-05-22T06:20:05.900Z,13.53
2019-05-22T06:22:34.355Z,11.80
2019-05-22T06:25:06.424Z,12.07
2019-05-22T06:27:43.404Z,10.60
2019-05-22T06:30:17.715Z,10.63
2019-05-22T06:33:09.002Z,10.50
2019-05-22T06:35:38.561Z,10.33
2019-05-22T06:38:25.697Z,9.77
2019-05-22T06:40:54.265Z,9.37
2019-05-22T06:43:24.582Z,9.87
2019-05-22T06:45:53.771Z,9.27
2019-05-22T06:48:21.866Z,10.30
2019-05-22T06:50:50.185Z,9.70
2019-05-22T06:53:19.520Z,9.13
2019-05-22T06:55:48.371Z,9.60
2019-05-22T06:58:16.629Z,9.60
2019-05-22T07:00:45.621Z,9.97
2019-05-22T07:03:13.791Z,9.77
2019-05-22T07:05:42.857Z,10.03
2019-05-22T07:08:11.240Z,9.90
2019-05-22T07:10:41.424Z,10.40
2019-05-22T07:13:11.075Z,9.57
2019-05-22T07:15:44.092Z,9.20
2019-05-22T07:18:15.304Z,8.50
2019-05-22T07:20:44.590Z,8.73
2019-05-22T07:23:15.242Z,8.97
2019-05-22T07:25:44.788Z,9.03
2019-05-22T07:28:15.546Z,9.10
2019-05-22T07:30:44.408Z,8.50
2019-05-22T07:33:13.487Z,8.43
2019-05-22T07:35:56.747Z,8.50
2019-05-22T07:38:14.038Z,8.00
2019-05-22T07:40:43.042Z,8.07
2019-05-22T07:43:11.859Z,7.33
2019-05-22T07:45:40.835Z,7.90
2019-05-22T07:48:11.072Z,7.60
2019-05-22T07:50:42.310Z,7.10
2019-05-22T07:53:11.671Z,7.87
2019-05-22T07:55:41.168Z,8.20
2019-05-22T07:58:14.752Z,8.17
2019-05-22T08:00:47.744Z,6.93
2019-05-22T08:03:16.931Z,7.10
2019-05-22T08:05:48.672Z,7.93
2019-05-22T08:08:18.829Z,7.57
2019-05-22T08:10:47.637Z,7.47
2019-05-22T08:13:16.047Z,7.47
2019-05-22T08:15:47.687Z,7.70
2019-05-22T08:18:17.247Z,7.53
2019-05-22T08:20:45.937Z,7.67
2019-05-22T08:23:15.384Z,7.83
2019-05-22T08:25:43.476Z,7.80
2019-05-22T08:28:12.298Z,8.00
2019-05-22T08:30:41.387Z,9.43
2019-05-22T08:33:11.819Z,9.50
2019-05-22T08:35:40.935Z,9.77
2019-05-22T08:38:11.486Z,10.40
2019-05-22T08:40:41.084Z,12.10
2019-05-22T08:43:10.184Z,10.03
2019-05-22T08:45:38.758Z,11.00
2019-05-22T08:48:07.419Z,8.87
2019-05-22T08:50:37.364Z,9.50
2019-05-22T08:53:07.036Z,8.53
2019-05-22T08:55:36.085Z,9.23
2019-05-22T08:58:05.852Z,8.30
2019-05-22T09:00:35.165Z,8.97
2019-05-22T09:03:05.227Z,10.37
2019-05-22T09:05:33.929Z,9.60
2019-05-22T09:08:03.112Z,11.23
2019-05-22T09:10:33.350Z,10.50
2019-05-22T09:13:02.096Z,10.90
2019-05-22T09:15:32.331Z,10.30
2019-05-22T09:18:05.082Z,11.07
2019-05-22T09:20:47.979Z,11.67
2019-05-22T09:23:05.211Z,10.93
2019-05-22T09:25:35.825Z,10.67
2019-05-22T09:28:04.268Z,10.00
2019-05-22T09:30:33.484Z,9.97
2019-05-22T09:33:03.284Z,10.60
2019-05-22T09:35:31.523Z,9.53
2019-05-22T09:38:00.123Z,9.93
2019-05-22T09:40:30.205Z,10.03
2019-05-22T09:42:58.966Z,8.47
2019-05-22T09:45:27.607Z,8.73
2019-05-22T09:47:57.289Z,8.20
2019-05-22T09:50:26.281Z,8.77
2019-05-22T09:52:57.987Z,10.00
2019-05-22T09:55:25.425Z,8.50
2019-05-22T09:57:54.437Z,10.57
2019-05-22T10:00:23.644Z,9.73
2019-05-22T10:02:51.944Z,10.50
2019-05-22T10:05:21.014Z,9.40
2019-05-22T10:08:00.270Z,8.63
2019-05-22T10:10:20.561Z,9.40
2019-05-22T10:12:49.017Z,9.53
2019-05-22T10:15:17.704Z,8.70
2019-05-22T10:17:47.597Z,10.73
2019-05-22T10:20:16.172Z,9.90
2019-05-22T10:22:44.348Z,9.70
2019-05-22T10:25:16.232Z,10.50
2019-05-22T10:27:43.723Z,10.13
2019-05-22T10:30:13.605Z,10.77
2019-05-22T10:32:42.201Z,9.97
2019-05-22T10:35:13.459Z,10.67
2019-05-22T10:37:42.791Z,11.77
2019-05-22T10:40:13.742Z,11.27
2019-05-22T10:42:44.872Z,11.90
2019-05-22T10:45:13.909Z,12.00
2019-05-22T10:47:43.752Z,11.90
2019-05-22T10:50:13.845Z,10.40
2019-05-22T10:52:41.966Z,11.77
2019-05-22T10:55:12.315Z,10.37
2019-05-22T10:57:42.395Z,11.20
2019-05-22T11:00:20.048Z,13.20
2019-05-22T11:02:48.991Z,13.03
2019-05-22T11:05:19.145Z,12.27
2019-05-22T11:07:48.386Z,11.20
2019-05-22T11:10:18.061Z,11.10
2019-05-22T11:12:46.407Z,10.90
2019-05-22T11:15:15.370Z,11.47
2019-05-22T11:17:44.748Z,11.57
2019-05-22T11:20:13.968Z,11.87
2019-05-22T11:22:42.683Z,11.13
2019-05-22T11:25:12.947Z,11.57
2019-05-22T11:27:41.740Z,12.27
2019-05-22T11:30:15.501Z,12.40
2019-05-22T11:32:43.850Z,10.87
2019-05-22T11:35:14.041Z,10.80
2019-05-22T11:37:42.613Z,10.37
2019-05-22T11:40:11.692Z,10.37
2019-05-22T11:42:40.353Z,10.47
2019-05-22T11:45:12.158Z,11.60
2019-05-22T11:47:40.914Z,11.90
2019-05-22T11:50:15.053Z,10.87
2019-05-22T11:52:44.243Z,11.57
2019-05-22T11:55:13.629Z,12.03
2019-05-22T11:57:43.880Z,11.73
2019-05-22T12:00:13.611Z,13.47
2019-05-22T12:02:43.577Z,13.33
2019-05-22T12:05:12.588Z,13.10
2019-05-22T12:07:41.853Z,12.30
2019-05-22T12:10:11.571Z,12.77
2019-05-22T12:12:41.456Z,11.90
2019-05-22T12:15:12.035Z,13.23
2019-05-22T12:17:41.627Z,11.83
2019-05-22T12:20:12.064Z,12.47
2019-05-22T12:22:41.280Z,11.77
2019-05-22T12:25:11.856Z,11.57
2019-05-22T12:27:40.464Z,12.67
2019-05-22T12:30:10.460Z,12.90
2019-05-22T12:32:40.732Z,13.10
2019-05-22T12:35:11.471Z,11.73
2019-05-22T12:37:41.981Z,12.67
2019-05-22T12:40:14.207Z,11.13
2019-05-22T12:42:44.387Z,11.47
2019-05-22T12:45:14.333Z,11.40
2019-05-22T12:47:43.224Z,11.70
2019-05-22T12:50:14.915Z,11.47
2019-05-22T12:52:46.622Z,12.30
2019-05-22T12:55:15.396Z,11.50
2019-05-22T12:57:43.523Z,11.43
2019-05-22T13:00:12.198Z,12.07
2019-05-22T13:02:42.764Z,12.30
2019-05-22T13:05:14.485Z,10.23
2019-05-22T13:07:42.164Z,11.43
2019-05-22T13:10:10.758Z,9.93
2019-05-22T13:12:39.402Z,10.70
2019-05-22T13:15:10.867Z,10.80
2019-05-22T13:17:40.959Z,11.27
2019-05-22T13:20:15.575Z,9.90
2019-05-22T13:22:47.890Z,10.93
2019-05-22T13:25:17.379Z,10.77
2019-05-22T13:27:45.994Z,10.70
2019-05-22T13:30:17.124Z,11.00
2019-05-22T13:32:46.450Z,9.87
2019-05-22T13:35:18.494Z,9.93
2019-05-22T13:37:47.911Z,9.77
2019-05-22T13:40:27.538Z,10.50
2019-05-22T13:42:49.237Z,10.50
2019-05-22T13:45:29.179Z,9.97
2019-05-22T13:47:49.268Z,10.03
2019-05-22T13:50:18.658Z,11.23
2019-05-22T13:52:49.258Z,11.63
2019-05-22T13:55:18.680Z,11.53
2019-05-22T13:57:48.764Z,11.57
2019-05-22T14:00:20.263Z,11.60
2019-05-22T14:02:49.658Z,12.20
2019-05-22T14:05:18.380Z,12.30
2019-05-22T14:07:46.633Z,10.47
2019-05-22T14:10:16.927Z,9.93
2019-05-22T14:12:45.511Z,10.07
2019-05-22T14:15:15.221Z,10.10
2019-05-22T14:17:43.779Z,10.30
2019-05-22T14:20:14.197Z,10.30
2019-05-22T14:22:42.783Z,10.53
2019-05-22T14:25:11.751Z,9.40
2019-05-22T14:27:41.774Z,9.87
2019-05-22T14:30:13.167Z,9.50
2019-05-22T14:32:41.988Z,10.23
2019-05-22T14:35:11.003Z,8.13
2019-05-22T14:37:39.411Z,8.97
2019-05-22T14:40:08.396Z,8.90
2019-05-22T14:42:37.767Z,9.63
2019-05-22T14:45:06.916Z,8.80
2019-05-22T14:47:35.055Z,9.33
2019-05-22T14:50:04.851Z,7.93
2019-05-22T14:52:33.392Z,7.90
2019-05-22T14:55:02.819Z,7.17
2019-05-22T14:57:32.459Z,8.00
2019-05-22T15:00:00.555Z,8.20
2019-05-22T15:02:30.047Z,9.20
2019-05-22T15:04:58.751Z,8.00
2019-05-22T15:07:26.882Z,8.37
2019-05-22T15:09:55.317Z,8.03
2019-05-22T15:12:23.424Z,8.20
2019-05-22T15:14:51.927Z,7.30
2019-05-22T15:17:32.454Z,7.53
2019-05-22T15:19:52.096Z,8.30
2019-05-22T15:22:21.141Z,7.47
2019-05-22T15:24:49.613Z,7.90
2019-05-22T15:27:17.832Z,7.90
2019-05-22T15:29:46.419Z,7.97
2019-05-22T15:32:15.209Z,7.50
2019-05-22T15:34:43.412Z,7.33
2019-05-22T15:37:13.511Z,7.33
2019-05-22T15:39:43.021Z,7.33
2019-05-22T15:42:12.903Z,6.77
2019-05-22T15:44:42.552Z,6.90
2019-05-22T15:47:11.305Z,7.53
2019-05-22T15:49:43.090Z,8.37
2019-05-22T15:52:15.223Z,8.07
2019-05-22T15:54:43.993Z,8.50
2019-05-22T15:57:12.796Z,7.80
2019-05-22T15:59:41.975Z,7.63
2019-05-22T16:02:10.949Z,7.47
2019-05-22T16:04:41.096Z,7.07
2019-05-22T16:07:10.825Z,7.90
2019-05-22T16:09:40.748Z,7.17
2019-05-22T16:12:09.228Z,7.17
2019-05-22T16:14:38.903Z,8.30
2019-05-22T16:17:09.867Z,8.67
2019-05-22T16:19:39.277Z,7.50
2019-05-22T16:22:09.352Z,8.37
2019-05-22T16:24:38.989Z,7.40
2019-05-22T16:27:08.372Z,8.93
2019-05-22T16:29:38.165Z,7.93
2019-05-22T16:32:07.824Z,8.40
2019-05-22T16:34:37.725Z,8.43
2019-05-22T16:37:06.147Z,7.40
2019-05-22T16:39:37.076Z,8.33
2019-05-22T16:42:06.171Z,7.80
2019-05-22T16:44:35.479Z,8.17
2019-05-22T16:47:06.780Z,8.07
2019-05-22T16:49:36.085Z,7.60
2019-05-22T16:52:06.908Z,6.70
2019-05-22T16:54:35.171Z,9.13
2019-05-22T16:57:03.730Z,7.63
2019-05-22T16:59:36.684Z,7.53
2019-05-22T17:02:04.499Z,7.30
2019-05-22T17:04:33.208Z,7.87
2019-05-22T17:07:01.456Z,7.60
2019-05-22T17:09:30.724Z,8.50
2019-05-22T17:11:59.227Z,7.90
2019-05-22T17:14:29.624Z,6.80
2019-05-22T17:16:59.006Z,9.53
2019-05-22T17:19:28.149Z,7.63
2019-05-22T17:21:57.140Z,9.10
2019-05-22T17:24:27.247Z,7.83
2019-05-22T17:26:56.320Z,7.63
2019-05-22T17:29:25.374Z,7.83
2019-05-22T17:31:54.569Z,8.00
2019-05-22T17:34:33.794Z,7.87
2019-05-22T17:37:11.519Z,6.93
2019-05-22T17:39:42.272Z,7.40
2019-05-22T17:42:13.511Z,7.77
2019-05-22T17:44:45.468Z,7.27
2019-05-22T17:47:14.581Z,10.17
2019-05-22T17:49:43.846Z,15.80
2019-05-22T17:52:14.642Z,10.40
2019-05-22T17:54:43.526Z,9.57
2019-05-22T17:57:13.286Z,9.67
2019-05-22T17:59:41.759Z,7.03
2019-05-22T18:02:11.569Z,7.10
2019-05-22T18:04:39.671Z,8.97
2019-05-22T18:07:09.816Z,7.77
2019-05-22T18:09:38.683Z,7.93
2019-05-22T18:12:07.579Z,8.20
2019-05-22T18:14:36.883Z,7.80
2019-05-22T18:17:06.539Z,6.80
2019-05-22T18:19:35.763Z,7.93
2019-05-22T18:22:06.337Z,8.13
2019-05-22T18:24:34.773Z,7.73
2019-05-22T18:27:03.301Z,7.50
2019-05-22T18:29:31.759Z,7.37
2019-05-22T18:32:01.119Z,8.63
2019-05-22T18:34:29.284Z,8.90
2019-05-22T18:36:57.743Z,8.97
2019-05-22T18:39:27.359Z,8.03
2019-05-22T18:41:55.879Z,8.23
2019-05-22T18:44:23.988Z,8.80
2019-05-22T18:46:52.784Z,7.90
2019-05-22T18:49:20.953Z,8.50
2019-05-22T18:51:49.493Z,11.13
2019-05-22T18:54:19.132Z,10.70
2019-05-22T18:56:47.857Z,9.37
2019-05-22T18:59:16.346Z,9.30
2019-05-22T19:01:45.128Z,8.83
2019-05-22T19:04:13.219Z,8.17
2019-05-22T19:06:42.442Z,7.90
2019-05-22T19:09:10.532Z,7.73
2019-05-22T19:11:39.247Z,7.80
2019-05-22T19:14:08.396Z,7.90
2019-05-22T19:16:37.157Z,8.73
2019-05-22T19:19:05.823Z,8.00
2019-05-22T19:21:34.009Z,8.00
2019-05-22T19:24:03.057Z,8.50
2019-05-22T19:26:31.728Z,8.70
2019-05-22T19:29:00.623Z,8.30
2019-05-22T19:31:28.979Z,8.30
2019-05-22T19:33:57.164Z,8.33
2019-05-22T19:36:26.080Z,8.87
2019-05-22T19:38:54.334Z,9.33
2019-05-22T19:41:24.085Z,9.70
2019-05-22T19:43:52.219Z,9.73
2019-05-22T19:46:20.898Z,9.77
2019-05-22T19:48:49.582Z,9.40
2019-05-22T19:51:18.082Z,10.27
2019-05-22T19:53:47.803Z,10.80
2019-05-22T19:56:16.979Z,10.73
2019-05-22T19:58:45.752Z,10.83
2019-05-22T20:01:14.375Z,11.00
2019-05-22T20:03:43.038Z,11.40
2019-05-22T20:06:11.887Z,11.33
2019-05-22T20:08:40.701Z,11.17
2019-05-22T20:11:09.641Z,12.00
2019-05-22T20:13:38.562Z,12.17
2019-05-22T20:16:06.662Z,11.87
2019-05-22T20:18:35.716Z,11.27
2019-05-22T20:21:04.392Z,12.23
2019-05-22T20:23:36.481Z,11.57
2019-05-22T20:26:03.756Z,11.00
2019-05-22T20:28:32.602Z,11.57
2019-05-22T20:31:00.742Z,12.17
2019-05-22T20:33:28.901Z,11.17
2019-05-22T20:35:57.097Z,12.40
2019-05-22T20:38:26.352Z,12.10
2019-05-22T20:40:55.174Z,11.53
2019-05-22T20:43:23.548Z,12.40
2019-05-22T20:45:53.529Z,12.27
2019-05-22T20:48:23.748Z,12.57
2019-05-22T20:50:53.354Z,12.03
2019-05-22T20:53:21.828Z,12.20
2019-05-22T20:55:50.360Z,12.30
2019-05-22T20:58:20.876Z,12.67
2019-05-22T21:00:51.443Z,12.70
2019-05-22T21:03:20.240Z,12.20
2019-05-22T21:05:51.148Z,11.57
2019-05-22T21:08:22.332Z,11.77
2019-05-22T21:10:52.253Z,11.90
2019-05-22T21:13:20.689Z,11.90
2019-05-22T21:15:51.167Z,12.27
2019-05-22T21:18:21.461Z,11.50
2019-05-22T21:20:55.100Z,11.63
2019-05-22T21:23:22.065Z,12.37
2019-05-22T21:25:51.404Z,12.33
2019-05-22T21:28:20.094Z,12.77
2019-05-22T21:30:49.284Z,12.50
2019-05-22T21:33:17.956Z,13.27
2019-05-22T21:35:46.961Z,12.60
2019-05-22T21:38:15.912Z,13.57
2019-05-22T21:40:44.513Z,13.00
2019-05-22T21:43:15.286Z,13.30
2019-05-22T21:45:43.530Z,12.47
2019-05-22T21:48:11.836Z,12.50
2019-05-22T21:50:41.041Z,12.43
2019-05-22T21:53:14.100Z,12.90
2019-05-22T21:55:45.508Z,12.27
2019-05-22T21:58:13.533Z,12.70
2019-05-22T22:00:49.721Z,12.80
2019-05-22T22:03:22.055Z,13.70
2019-05-22T22:05:50.509Z,12.30
2019-05-22T22:08:18.827Z,13.77
2019-05-22T22:10:47.895Z,13.43
2019-05-22T22:13:17.371Z,13.30
2019-05-22T22:15:46.249Z,12.63
2019-05-22T22:18:15.376Z,13.70
2019-05-22T22:20:44.356Z,13.00
2019-05-22T22:23:15.304Z,12.33
2019-05-22T22:25:44.244Z,14.03
2019-05-22T22:28:15.373Z,13.30
2019-05-22T22:30:52.048Z,13.53
2019-05-22T22:33:23.728Z,13.03
2019-05-22T22:35:53.771Z,12.37
2019-05-22T22:38:30.590Z,12.80
2019-05-22T22:40:59.842Z,12.23
2019-05-22T22:43:32.392Z,18.60
2019-05-22T22:46:19.577Z,17.67
2019-05-22T22:48:51.690Z,15.07
2019-05-22T22:51:22.151Z,14.17
2019-05-22T22:53:51.067Z,13.50
2019-05-22T22:56:20.670Z,12.73
2019-05-22T22:58:49.295Z,13.27
2019-05-22T23:01:21.183Z,13.03
2019-05-22T23:03:51.856Z,12.97
2019-05-22T23:06:19.968Z,14.13
2019-05-22T23:08:49.121Z,12.70
2019-05-22T23:11:19.291Z,12.70
2019-05-22T23:13:48.079Z,13.17
2019-05-22T23:16:19.086Z,12.70
2019-05-22T23:18:58.899Z,13.77
2019-05-22T23:21:26.875Z,13.40
2019-05-22T23:23:55.256Z,13.87
2019-05-22T23:26:23.755Z,13.20
2019-05-22T23:28:52.960Z,13.17
2019-05-22T23:31:22.567Z,12.87
2019-05-22T23:33:52.117Z,14.37
2019-05-22T23:36:20.253Z,12.53
2019-05-22T23:38:49.638Z,14.87
2019-05-22T23:41:19.120Z,13.57
2019-05-22T23:43:48.697Z,13.90
2019-05-22T23:46:16.890Z,12.33
2019-05-22T23:48:45.866Z,13.70
2019-05-22T23:51:14.411Z,13.00
2019-05-22T23:53:44.162Z,14.23
2019-05-22T23:56:14.167Z,14.70
2019-05-22T23:58:52.157Z,13.40
